createdAt,value
2022-12-01T04:54:27.430Z,9.95
2022-12-01T04:57:30.757Z,9.70
2022-12-01T05:00:33.538Z,9.93
2022-12-01T05:03:41.184Z,10.68
2022-12-01T05:06:43.966Z,9.40
2022-12-01T05:09:46.811Z,10.18
2022-12-01T05:12:49.856Z,8.95
2022-12-01T05:15:52.665Z,8.65
2022-12-01T05:19:19.853Z,10.00
2022-12-01T05:22:36.713Z,9.18
2022-12-01T05:25:44.821Z,8.35
2022-12-01T05:28:47.565Z,9.67
2022-12-01T05:31:49.979Z,10.27
2022-12-01T05:34:52.695Z,9.23
2022-12-01T05:37:55.538Z,9.93
2022-12-01T05:40:58.221Z,10.80
2022-12-01T05:44:00.683Z,9.60
2022-12-01T05:47:03.674Z,9.63
2022-12-01T05:50:07.096Z,9.98
2022-12-01T05:56:13.919Z,10.23
2022-12-01T05:59:16.859Z,10.55
2022-12-01T06:02:19.592Z,9.35
2022-12-01T06:05:22.305Z,11.95
2022-12-01T06:08:24.768Z,9.20
2022-12-01T06:11:27.547Z,12.88
2022-12-01T06:14:29.924Z,10.60
2022-12-01T06:17:38.506Z,12.63
2022-12-01T06:20:42.459Z,9.95
2022-12-01T06:23:45.561Z,10.98
2022-12-01T06:26:47.953Z,11.68
2022-12-01T06:29:50.825Z,10.70
2022-12-01T06:32:53.405Z,11.25
2022-12-01T06:36:00.134Z,12.37
2022-12-01T06:39:06.812Z,11.50
2022-12-01T06:42:09.923Z,13.23
2022-12-01T06:45:12.474Z,12.93
2022-12-01T06:48:15.485Z,12.73
2022-12-01T06:51:18.006Z,12.97
2022-12-01T06:54:21.362Z,13.13
2022-12-01T06:57:23.725Z,13.57
2022-12-01T07:00:26.899Z,13.50
2022-12-01T07:03:29.217Z,12.20
2022-12-01T07:06:32.498Z,13.48
2022-12-01T07:09:34.878Z,10.73
2022-12-01T07:12:37.794Z,12.37
2022-12-01T07:15:40.109Z,12.63
2022-12-01T07:18:44.976Z,15.07
2022-12-01T07:21:48.010Z,12.27
2022-12-01T07:24:50.614Z,14.68
2022-12-01T07:27:52.920Z,12.40
2022-12-01T07:31:05.407Z,15.18
2022-12-01T07:34:13.179Z,13.80
2022-12-01T07:37:17.575Z,13.65
2022-12-01T07:40:23.316Z,15.13
2022-12-01T07:43:25.884Z,13.50
2022-12-01T07:46:28.622Z,13.62
2022-12-01T07:49:31.438Z,14.25
2022-12-01T07:52:33.788Z,14.95
2022-12-01T07:55:36.427Z,16.37
2022-12-01T07:58:39.263Z,13.48
2022-12-01T08:01:44.734Z,14.68
2022-12-01T08:04:47.561Z,15.52
2022-12-01T08:07:49.981Z,13.75
2022-12-01T08:10:53.978Z,14.80
2022-12-01T08:13:58.084Z,14.15
2022-12-01T08:17:00.902Z,16.02
2022-12-01T08:20:03.940Z,16.27
2022-12-01T08:23:08.138Z,16.50
2022-12-01T08:26:18.579Z,14.85
2022-12-01T08:29:21.191Z,13.45
2022-12-01T08:32:23.448Z,14.55
2022-12-01T08:35:25.989Z,18.25
2022-12-01T08:38:28.395Z,15.77
2022-12-01T08:41:31.742Z,14.20
2022-12-01T08:44:34.108Z,14.13
2022-12-01T08:47:36.694Z,14.73
2022-12-01T08:50:39.005Z,14.85
2022-12-01T08:53:45.710Z,14.23
2022-12-01T08:56:48.532Z,14.68
2022-12-01T08:59:51.507Z,13.73
2022-12-01T09:02:54.046Z,14.73
2022-12-01T09:06:05.337Z,16.17
2022-12-01T09:09:09.624Z,14.25
2022-12-01T09:12:13.033Z,13.90
2022-12-01T09:15:15.811Z,13.20
2022-12-01T09:18:18.526Z,10.35
2022-12-01T09:21:24.266Z,10.18
2022-12-01T09:24:27.183Z,9.80
2022-12-01T09:27:29.537Z,9.95
2022-12-01T09:30:32.095Z,9.33
2022-12-01T09:33:34.955Z,9.40
2022-12-01T09:36:38.092Z,7.47
2022-12-01T09:39:40.474Z,11.50
2022-12-01T09:42:47.261Z,10.13
2022-12-01T09:45:54.485Z,11.25
2022-12-01T09:48:58.244Z,9.13
2022-12-01T09:52:00.686Z,9.52
2022-12-01T09:55:03.781Z,11.27
2022-12-01T09:58:17.751Z,9.07
2022-12-01T10:01:31.607Z,9.75
2022-12-01T10:04:43.182Z,11.85
2022-12-01T10:07:48.717Z,11.23
2022-12-01T10:10:54.914Z,8.82
2022-12-01T10:13:58.936Z,10.55
2022-12-01T10:17:15.007Z,9.68
2022-12-01T10:20:22.178Z,9.70
2022-12-01T10:24:11.106Z,10.05
2022-12-01T10:27:52.698Z,9.25
2022-12-01T10:31:04.883Z,8.80
2022-12-01T10:34:29.375Z,11.38
2022-12-01T10:37:32.640Z,11.05
2022-12-01T10:40:35.348Z,11.55
2022-12-01T10:43:43.909Z,10.90
2022-12-01T10:46:55.843Z,10.77
2022-12-01T10:49:58.977Z,11.50
2022-12-01T10:53:01.439Z,12.52
2022-12-01T10:56:10.003Z,9.63
2022-12-01T10:59:35.680Z,10.77
2022-12-01T11:02:38.793Z,10.35
2022-12-01T11:05:42.443Z,9.68
2022-12-01T11:08:56.163Z,11.65
2022-12-01T11:12:03.906Z,11.73
2022-12-01T11:15:07.850Z,13.30
2022-12-01T11:21:28.104Z,11.75
2022-12-01T11:24:33.388Z,12.82
2022-12-01T11:28:01.776Z,12.07
2022-12-01T11:31:09.673Z,11.68
2022-12-01T11:34:39.051Z,11.93
2022-12-01T11:38:13.083Z,11.00
2022-12-01T11:41:32.712Z,11.60
2022-12-01T11:44:51.657Z,12.20
2022-12-01T11:48:03.132Z,11.10
2022-12-01T11:51:27.671Z,11.43
2022-12-01T11:54:30.324Z,13.65
2022-12-01T11:57:34.680Z,12.95
2022-12-01T12:00:53.326Z,12.20
2022-12-01T12:04:05.404Z,10.50
2022-12-01T12:07:26.582Z,10.20
2022-12-01T12:10:32.544Z,8.82
2022-12-01T12:14:16.676Z,10.55
2022-12-01T12:20:58.292Z,11.40
2022-12-01T12:24:13.251Z,10.30
2022-12-01T12:27:27.774Z,9.88
2022-12-01T12:30:32.045Z,12.00
2022-12-01T12:33:40.910Z,9.48
2022-12-01T12:36:58.633Z,11.32
2022-12-01T12:40:10.135Z,10.95
2022-12-01T12:43:23.875Z,11.27
2022-12-01T12:47:05.097Z,10.65
2022-12-01T12:50:33.956Z,10.63
2022-12-01T12:53:46.220Z,12.07
2022-12-01T12:56:55.685Z,11.05
2022-12-01T13:00:06.815Z,10.52
2022-12-01T13:03:24.541Z,10.80
2022-12-01T13:06:44.617Z,10.18
2022-12-01T13:09:55.530Z,11.15
2022-12-01T13:13:12.123Z,10.68
2022-12-01T13:16:19.426Z,9.10
2022-12-01T13:19:32.088Z,11.35
2022-12-01T13:22:36.028Z,10.90
2022-12-01T13:25:40.803Z,10.13
2022-12-01T13:28:47.899Z,10.23
2022-12-01T13:31:52.737Z,10.13
2022-12-01T13:34:55.497Z,9.82
2022-12-01T13:38:20.709Z,11.57
2022-12-01T13:41:28.337Z,9.85
2022-12-01T13:44:40.722Z,10.52
2022-12-01T13:47:54.312Z,11.48
2022-12-01T13:51:00.022Z,12.02
2022-12-01T13:54:28.082Z,9.73
2022-12-01T13:57:33.080Z,9.98
2022-12-01T14:00:36.023Z,9.95
2022-12-01T14:03:40.594Z,9.88
2022-12-01T14:06:50.621Z,6.25
2022-12-01T14:09:57.570Z,6.55
2022-12-01T14:13:04.224Z,6.35
2022-12-01T14:16:08.276Z,6.12
2022-12-01T14:19:27.998Z,6.87
2022-12-01T14:22:34.257Z,6.30
2022-12-01T14:25:37.583Z,6.70
2022-12-01T14:28:55.627Z,7.72
2022-12-01T14:32:00.862Z,6.60
2022-12-01T14:35:06.097Z,6.50
2022-12-01T14:38:10.971Z,7.12
2022-12-01T14:41:25.082Z,9.02
2022-12-01T14:44:49.104Z,6.85
2022-12-01T14:48:18.350Z,7.25
2022-12-01T14:51:32.502Z,7.50
2022-12-01T14:54:43.850Z,7.37
2022-12-01T14:57:51.465Z,7.43
2022-12-01T15:00:56.908Z,7.20
2022-12-01T15:04:01.611Z,7.85
2022-12-01T15:07:04.271Z,8.38
2022-12-01T15:10:29.051Z,6.25
2022-12-01T15:13:48.184Z,6.60
2022-12-01T15:16:50.641Z,6.97
2022-12-01T15:19:53.474Z,7.53
2022-12-01T15:22:57.287Z,6.97
2022-12-01T15:26:00.080Z,7.97
2022-12-01T15:29:20.822Z,7.37
2022-12-01T15:32:24.824Z,8.02
2022-12-01T15:35:27.482Z,7.50
2022-12-01T15:38:35.605Z,7.65
2022-12-01T15:41:41.370Z,6.75
2022-12-01T15:44:43.922Z,7.30
2022-12-01T15:47:49.627Z,7.20
2022-12-01T15:51:12.355Z,8.77
2022-12-01T15:54:28.149Z,8.18
2022-12-01T15:57:30.856Z,8.20
2022-12-01T16:00:33.875Z,6.93
2022-12-01T16:04:23.157Z,7.28
2022-12-01T16:07:50.211Z,8.48
2022-12-01T16:11:15.871Z,7.45
2022-12-01T16:14:24.785Z,8.77
2022-12-01T16:17:42.449Z,7.22
2022-12-01T16:20:44.908Z,8.10
2022-12-01T16:23:47.553Z,7.47
2022-12-01T16:26:53.439Z,8.02
2022-12-01T16:29:57.536Z,9.23
2022-12-01T16:33:06.646Z,8.52
2022-12-01T16:36:09.678Z,9.18
2022-12-01T16:39:13.993Z,8.30
2022-12-01T16:42:20.518Z,8.68
2022-12-01T16:45:26.402Z,8.00
2022-12-01T16:48:30.160Z,8.77
2022-12-01T16:51:54.276Z,9.63
